createdAt,value
2018-02-08T00:01:09.959Z,101349.28
2018-02-08T00:03:37.469Z,101351.51
2018-02-08T00:06:05.145Z,101354.06
2018-02-08T00:08:32.677Z,101358.55
2018-02-08T00:11:00.201Z,101364.39
2018-02-08T00:13:27.781Z,101364.09
2018-02-08T00:15:55.312Z,101371.02
2018-02-08T00:18:22.846Z,101373.26
2018-02-08T00:20:50.398Z,101370.67
2018-02-08T00:23:17.938Z,101372.67
2018-02-08T00:25:45.516Z,101374.11
2018-02-08T00:28:13.037Z,101370.44
2018-02-08T00:30:40.562Z,101375.09
2018-02-08T00:33:08.119Z,101372.13
2018-02-08T00:35:35.632Z,101366.78
2018-02-08T00:38:03.158Z,101365.63
2018-02-08T00:40:30.719Z,101372.37
2018-02-08T00:42:58.430Z,101371.77
2018-02-08T00:45:25.967Z,101372.75
2018-02-08T00:47:53.495Z,101374.30
2018-02-08T00:50:21.047Z,101377.44
2018-02-08T00:52:48.569Z,101377.44
2018-02-08T00:55:16.148Z,101372.73
2018-02-08T00:57:43.681Z,101377.44
2018-02-08T01:00:11.257Z,101374.69
2018-02-08T01:02:38.800Z,101382.09
2018-02-08T01:05:06.321Z,101379.67
2018-02-08T01:07:33.847Z,101392.50
2018-02-08T01:10:01.392Z,101387.62
2018-02-08T01:12:28.916Z,101389.14
2018-02-08T01:14:56.484Z,101388.77
2018-02-08T01:17:24.006Z,101386.18
2018-02-08T01:19:51.551Z,101387.22
2018-02-08T01:22:19.120Z,101389.39
2018-02-08T01:24:46.653Z,101379.81
2018-02-08T01:27:14.198Z,101395.70
2018-02-08T01:29:41.867Z,101395.15
2018-02-08T01:32:09.388Z,101393.17
2018-02-08T01:34:36.920Z,101394.36
2018-02-08T01:37:04.441Z,101399.56
2018-02-08T01:39:31.991Z,101397.33
2018-02-08T01:41:59.773Z,101395.17
2018-02-08T01:44:27.323Z,101398.52
2018-02-08T01:46:54.893Z,101399.60
2018-02-08T01:49:34.296Z,101404.97
2018-02-08T01:52:01.847Z,101402.26
2018-02-08T01:54:29.392Z,101401.29
2018-02-08T01:56:56.942Z,101398.61
2018-02-08T01:59:24.524Z,101392.93
2018-02-08T02:01:52.087Z,101392.69
2018-02-08T02:04:19.620Z,101396.95
2018-02-08T02:06:47.153Z,101396.70
2018-02-08T02:09:14.695Z,101391.97
2018-02-08T02:11:42.280Z,101395.98
2018-02-08T02:14:09.863Z,101394.30
2018-02-08T02:16:37.506Z,101388.77
2018-02-08T02:19:05.057Z,101390.11
2018-02-08T02:21:32.712Z,101392.31
2018-02-08T02:24:00.229Z,101391.72
2018-02-08T02:26:27.821Z,101395.38
2018-02-08T02:28:55.366Z,101392.03
2018-02-08T02:31:22.893Z,101399.91
2018-02-08T02:33:50.465Z,101392.45
2018-02-08T02:36:18.013Z,101389.67
2018-02-08T02:38:45.715Z,101393.30
2018-02-08T02:41:13.283Z,101394.30
2018-02-08T02:43:40.813Z,101396.53
2018-02-08T02:46:08.495Z,101391.17
2018-02-08T02:48:36.022Z,101393.33
2018-02-08T02:51:03.585Z,101395.98
2018-02-08T02:53:31.156Z,101392.67
2018-02-08T02:55:58.738Z,101396.34
2018-02-08T02:58:26.298Z,101396.99
2018-02-08T03:00:53.828Z,101388.46
2018-02-08T03:03:21.434Z,101392.50
2018-02-08T03:05:48.977Z,101392.36
2018-02-08T03:08:16.542Z,101391.81
2018-02-08T03:10:44.091Z,101394.11
2018-02-08T03:13:11.683Z,101392.44
2018-02-08T03:15:39.260Z,101395.54
2018-02-08T03:18:06.871Z,101398.53
2018-02-08T03:20:34.423Z,101400.88
2018-02-08T03:23:02.001Z,101403.27
2018-02-08T03:25:29.549Z,101405.74
2018-02-08T03:27:57.077Z,101398.08
2018-02-08T03:30:36.348Z,101399.58
2018-02-08T03:33:03.892Z,101404.62
2018-02-08T03:35:31.465Z,101404.10
2018-02-08T03:37:59.021Z,101398.39
2018-02-08T03:40:26.547Z,101399.85
2018-02-08T03:42:54.100Z,101396.95
2018-02-08T03:45:21.621Z,101401.27
2018-02-08T03:47:49.142Z,101396.88
2018-02-08T03:50:16.720Z,101395.52
2018-02-08T03:52:44.309Z,101396.13
2018-02-08T03:55:11.865Z,101402.14
2018-02-08T03:57:39.445Z,101394.94
2018-02-08T04:00:06.989Z,101393.13
2018-02-08T04:02:34.535Z,101397.45
2018-02-08T04:05:02.098Z,101401.80
2018-02-08T04:07:29.613Z,101403.74
2018-02-08T04:09:57.208Z,101407.53
2018-02-08T04:12:24.749Z,101413.17
2018-02-08T04:14:52.296Z,101419.99
2018-02-08T04:17:19.877Z,101412.59
2018-02-08T04:19:47.403Z,101412.93
2018-02-08T04:22:14.947Z,101414.97
2018-02-08T04:24:42.504Z,101415.14
2018-02-08T04:27:10.056Z,101416.47
2018-02-08T04:29:37.691Z,101415.56
2018-02-08T04:32:05.226Z,101416.78
2018-02-08T04:34:32.761Z,101425.62
2018-02-08T04:37:00.288Z,101424.66
2018-02-08T04:39:39.609Z,101428.13
2018-02-08T04:42:19.100Z,101433.22
2018-02-08T04:44:58.481Z,101429.05
2018-02-08T04:47:43.569Z,101437.77
2018-02-08T04:50:11.110Z,101432.89
2018-02-08T04:52:38.650Z,101438.05
2018-02-08T04:55:06.252Z,101442.47
2018-02-08T04:57:33.803Z,101444.88
2018-02-08T05:00:01.347Z,101450.17
2018-02-08T05:02:28.892Z,101441.84
2018-02-08T05:04:56.438Z,101448.05
2018-02-08T05:07:23.990Z,101454.55
2018-02-08T05:09:51.514Z,101452.98
2018-02-08T05:12:19.036Z,101455.29
2018-02-08T05:14:46.580Z,101460.59
2018-02-08T05:17:14.115Z,101456.52
2018-02-08T05:19:41.649Z,101458.05
2018-02-08T05:22:09.214Z,101461.42
2018-02-08T05:24:36.724Z,101461.23
2018-02-08T05:27:04.293Z,101462.98
2018-02-08T05:29:32.024Z,101467.37
2018-02-08T05:31:59.572Z,101467.89
2018-02-08T05:34:27.116Z,101468.73
2018-02-08T05:36:54.742Z,101475.14
2018-02-08T05:39:22.305Z,101476.81
2018-02-08T05:41:49.843Z,101474.48
2018-02-08T05:44:17.392Z,101471.91
2018-02-08T05:46:44.933Z,101473.91
2018-02-08T05:49:12.456Z,101478.72
2018-02-08T05:51:39.974Z,101480.18
2018-02-08T05:54:07.533Z,101485.05
2018-02-08T05:56:35.081Z,101485.51
2018-02-08T05:59:02.609Z,101485.16
2018-02-08T06:01:30.142Z,101489.52
2018-02-08T06:03:57.763Z,101485.76
2018-02-08T06:06:25.340Z,101486.49
2018-02-08T06:08:52.852Z,101488.53
2018-02-08T06:11:20.391Z,101484.98
2018-02-08T06:13:47.940Z,101490.97
2018-02-08T06:16:15.492Z,101494.91
2018-02-08T06:18:43.021Z,101496.75
2018-02-08T06:21:10.585Z,101499.98
2018-02-08T06:23:38.136Z,101500.47
2018-02-08T06:26:05.695Z,101503.18
2018-02-08T06:28:33.250Z,101505.34
2018-02-08T06:31:00.792Z,101509.55
2018-02-08T06:33:28.320Z,101510.45
2018-02-08T06:35:55.856Z,101516.17
2018-02-08T06:38:23.419Z,101515.69
2018-02-08T06:40:50.956Z,101514.92
2018-02-08T06:43:18.497Z,101516.11
2018-02-08T06:45:46.172Z,101515.31
2018-02-08T06:48:13.712Z,101516.76
2018-02-08T06:50:41.261Z,101521.36
2018-02-08T06:53:08.813Z,101528.65
2018-02-08T06:55:36.363Z,101530.74
2018-02-08T06:58:03.916Z,101536.59
2018-02-08T07:00:31.540Z,101526.25
2018-02-08T07:02:59.304Z,101531.14
2018-02-08T07:05:26.839Z,101535.42
2018-02-08T07:07:54.372Z,101532.19
2018-02-08T07:10:21.926Z,101527.80
2018-02-08T07:12:49.444Z,101526.58
2018-02-08T07:15:17.249Z,101526.58
2018-02-08T07:17:44.868Z,101532.42
2018-02-08T07:20:12.387Z,101535.26
2018-02-08T07:22:39.908Z,101533.70
2018-02-08T07:25:07.497Z,101535.23
2018-02-08T07:27:35.172Z,101539.55
2018-02-08T07:30:02.714Z,101540.12
2018-02-08T07:32:30.316Z,101542.36
2018-02-08T07:34:57.956Z,101538.70
2018-02-08T07:37:26.167Z,101540.20
2018-02-08T07:39:53.710Z,101538.61
2018-02-08T07:42:21.276Z,101546.86
2018-02-08T07:44:48.825Z,101549.27
2018-02-08T07:47:16.384Z,101545.20
2018-02-08T07:49:44.046Z,101541.65
2018-02-08T07:52:11.570Z,101544.33
2018-02-08T07:54:39.137Z,101546.25
2018-02-08T07:57:06.704Z,101550.61
2018-02-08T07:59:34.228Z,101557.72
2018-02-08T08:02:01.796Z,101559.53
2018-02-08T08:04:29.339Z,101549.38
2018-02-08T08:06:56.963Z,101556.00
2018-02-08T08:09:24.492Z,101555.28
2018-02-08T08:11:52.062Z,101557.64
2018-02-08T08:14:19.586Z,101554.03
2018-02-08T08:16:47.125Z,101564.09
2018-02-08T08:19:14.696Z,101564.44
2018-02-08T08:21:42.504Z,101568.25
2018-02-08T08:24:10.082Z,101574.16
2018-02-08T08:26:37.664Z,101573.95
2018-02-08T08:29:05.180Z,101575.27
2018-02-08T08:31:32.750Z,101568.94
2018-02-08T08:34:00.348Z,101570.42
2018-02-08T08:36:27.893Z,101572.16
2018-02-08T08:38:55.466Z,101575.16
2018-02-08T08:41:22.982Z,101578.66
2018-02-08T08:43:50.517Z,101574.12
2018-02-08T08:46:18.073Z,101573.25
2018-02-08T08:48:45.581Z,101583.24
2018-02-08T08:51:13.100Z,101584.84
2018-02-08T08:53:40.642Z,101587.84
2018-02-08T08:56:08.184Z,101593.81
2018-02-08T08:58:35.932Z,101589.07
2018-02-08T09:01:03.475Z,101588.95
2018-02-08T09:03:31.052Z,101596.66
2018-02-08T09:05:58.573Z,101587.24
2018-02-08T09:08:26.172Z,101588.19
2018-02-08T09:10:53.864Z,101589.21
2018-02-08T09:13:21.493Z,101591.37
2018-02-08T09:15:49.036Z,101593.91
2018-02-08T09:18:16.612Z,101592.80
2018-02-08T09:20:44.141Z,101600.73
2018-02-08T09:23:11.752Z,101602.56
2018-02-08T09:25:39.290Z,101604.28
2018-02-08T09:28:06.821Z,101606.66
2018-02-08T09:30:35.198Z,101601.05
2018-02-08T09:33:02.753Z,101597.92
2018-02-08T09:35:30.346Z,101606.72
2018-02-08T09:37:58.011Z,101605.97
2018-02-08T09:40:25.549Z,101605.44
2018-02-08T09:42:53.084Z,101604.80
2018-02-08T09:45:20.876Z,101600.59
2018-02-08T09:47:48.441Z,101599.77
2018-02-08T09:50:15.958Z,101609.09
2018-02-08T09:52:43.488Z,101609.87
2018-02-08T09:55:11.045Z,101604.16
2018-02-08T09:57:38.580Z,101610.95
2018-02-08T10:00:06.089Z,101605.52
2018-02-08T10:02:33.632Z,101615.05
2018-02-08T10:05:01.169Z,101610.73
2018-02-08T10:07:28.705Z,101610.94
2018-02-08T10:09:56.242Z,101613.30
2018-02-08T10:12:23.828Z,101610.39
2018-02-08T10:14:51.482Z,101606.80
2018-02-08T10:17:19.012Z,101609.81
2018-02-08T10:19:46.529Z,101612.78
2018-02-08T10:22:14.051Z,101611.98
2018-02-08T10:24:41.557Z,101607.43
2018-02-08T10:27:09.177Z,101605.95
2018-02-08T10:29:36.686Z,101608.23
2018-02-08T10:32:04.282Z,101605.38
2018-02-08T10:34:31.811Z,101600.38
2018-02-08T10:36:59.333Z,101599.22
2018-02-08T10:39:26.893Z,101601.98
2018-02-08T10:41:54.412Z,101597.21
2018-02-08T10:44:21.943Z,101604.58
2018-02-08T10:46:49.495Z,101597.98
2018-02-08T10:49:17.011Z,101594.95
2018-02-08T10:51:44.564Z,101593.70
2018-02-08T10:54:12.133Z,101595.33
2018-02-08T10:56:39.660Z,101596.88
2018-02-08T10:59:07.252Z,101599.46
2018-02-08T11:01:34.782Z,101594.75
2018-02-08T11:04:02.317Z,101590.05
2018-02-08T11:06:29.840Z,101599.66
2018-02-08T11:08:57.386Z,101596.08
2018-02-08T11:11:24.922Z,101594.31
2018-02-08T11:13:52.433Z,101597.61
2018-02-08T11:16:20.024Z,101596.50
2018-02-08T11:18:47.526Z,101595.59
2018-02-08T11:21:15.062Z,101593.98
2018-02-08T11:23:42.590Z,101591.72
2018-02-08T11:26:10.147Z,101594.25
2018-02-08T11:28:37.678Z,101589.92
2018-02-08T11:31:05.193Z,101593.94
2018-02-08T11:33:32.866Z,101589.16
2018-02-08T11:36:00.397Z,101588.86
2018-02-08T11:38:28.003Z,101586.65
2018-02-08T11:40:55.781Z,101581.99
2018-02-08T11:43:23.285Z,101583.06
2018-02-08T11:45:50.790Z,101583.39
2018-02-08T11:48:18.338Z,101585.33
2018-02-08T11:50:45.924Z,101580.89
2018-02-08T11:53:13.465Z,101585.98
2018-02-08T11:55:41.038Z,101582.88
2018-02-08T11:58:08.809Z,101574.80
2018-02-08T12:00:36.318Z,101577.78
2018-02-08T12:03:03.825Z,101577.03
2018-02-08T12:05:31.376Z,101580.81
2018-02-08T12:07:58.892Z,101577.19
2018-02-08T12:10:26.486Z,101569.81
2018-02-08T12:12:54.045Z,101563.66
2018-02-08T12:15:21.611Z,101572.13
2018-02-08T12:17:49.145Z,101570.40
2018-02-08T12:20:16.730Z,101567.73
2018-02-08T12:22:44.260Z,101570.22
2018-02-08T12:25:11.770Z,101568.30
2018-02-08T12:27:39.329Z,101560.22
2018-02-08T12:30:06.861Z,101557.69
2018-02-08T12:32:34.374Z,101554.84
2018-02-08T12:35:02.097Z,101550.87
2018-02-08T12:37:29.606Z,101551.56
2018-02-08T12:39:57.132Z,101546.39
2018-02-08T12:42:24.681Z,101544.00
2018-02-08T12:44:52.208Z,101544.02
2018-02-08T12:47:19.717Z,101542.72
2018-02-08T12:49:47.280Z,101541.98
2018-02-08T12:52:14.803Z,101542.27
2018-02-08T12:54:42.333Z,101537.80
2018-02-08T12:57:09.856Z,101533.47
2018-02-08T12:59:37.357Z,101534.89
2018-02-08T13:02:04.920Z,101535.26
2018-02-08T13:04:32.512Z,101530.44
2018-02-08T13:07:00.044Z,101527.22
2018-02-08T13:09:27.593Z,101527.77
2018-02-08T13:11:55.129Z,101533.87
2018-02-08T13:14:22.664Z,101523.02
2018-02-08T13:16:50.173Z,101529.47
2018-02-08T13:19:17.766Z,101531.95
2018-02-08T13:21:45.301Z,101525.35
2018-02-08T13:24:12.839Z,101535.26
2018-02-08T13:26:40.550Z,101538.37
2018-02-08T13:29:08.072Z,101533.51
2018-02-08T13:31:36.366Z,101531.09
2018-02-08T13:34:03.887Z,101528.52
2018-02-08T13:36:42.229Z,101528.42
2018-02-08T13:39:15.173Z,101529.99
2018-02-08T13:41:42.736Z,101536.07
2018-02-08T13:44:10.263Z,101526.57
2018-02-08T13:46:37.768Z,101528.69
2018-02-08T13:49:06.191Z,101532.16
2018-02-08T13:51:36.565Z,101526.54
2018-02-08T13:54:09.719Z,101530.49
2018-02-08T13:56:42.847Z,101531.67
2018-02-08T13:59:12.284Z,101530.05
2018-02-08T14:01:41.572Z,101533.42
2018-02-08T14:04:09.081Z,101533.31
2018-02-08T14:06:36.641Z,101536.77
2018-02-08T14:09:04.186Z,101533.28
2018-02-08T14:11:31.736Z,101536.73
2018-02-08T14:13:59.258Z,101532.92
2018-02-08T14:16:26.788Z,101536.45
2018-02-08T14:18:54.473Z,101535.87
2018-02-08T14:21:21.992Z,101532.14
2018-02-08T14:23:49.520Z,101534.45
2018-02-08T14:26:17.249Z,101534.26
2018-02-08T14:28:44.781Z,101533.68
2018-02-08T14:31:12.358Z,101530.44
2018-02-08T14:33:39.900Z,101539.37
2018-02-08T14:36:07.417Z,101537.81
2018-02-08T14:38:35.054Z,101538.40
2018-02-08T14:41:02.801Z,101535.86
2018-02-08T14:43:31.274Z,101530.68
2018-02-08T14:45:58.782Z,101532.61
2018-02-08T14:48:26.328Z,101531.31
2018-02-08T14:50:53.932Z,101534.66
2018-02-08T14:53:21.444Z,101534.11
2018-02-08T14:55:48.993Z,101527.44
2018-02-08T14:58:16.622Z,101527.63
2018-02-08T15:00:44.133Z,101532.05
2018-02-08T15:03:11.664Z,101536.30
2018-02-08T15:05:39.220Z,101533.84
2018-02-08T15:08:06.762Z,101536.13
2018-02-08T15:10:34.345Z,101530.61
2018-02-08T15:13:01.862Z,101534.63
2018-02-08T15:15:29.443Z,101534.48
2018-02-08T15:17:56.922Z,101535.06
2018-02-08T15:20:24.446Z,101531.06
2018-02-08T15:22:51.970Z,101538.69
2018-02-08T15:25:19.500Z,101539.27
2018-02-08T15:27:47.023Z,101540.25
2018-02-08T15:30:14.627Z,101535.63
2018-02-08T15:32:42.294Z,101535.59
2018-02-08T15:35:09.824Z,101535.94
2018-02-08T15:37:37.356Z,101534.11
2018-02-08T15:40:04.931Z,101536.86
2018-02-08T15:42:32.465Z,101536.16
2018-02-08T15:45:00.018Z,101533.01
2018-02-08T15:47:27.664Z,101533.52
2018-02-08T15:49:55.165Z,101542.52
2018-02-08T15:52:22.678Z,101536.19
2018-02-08T15:54:50.313Z,101535.89
2018-02-08T15:57:17.830Z,101533.39
2018-02-08T15:59:45.445Z,101542.64
2018-02-08T16:02:13.016Z,101538.23
2018-02-08T16:04:40.528Z,101538.64
2018-02-08T16:07:08.122Z,101539.97
2018-02-08T16:09:35.669Z,101535.98
2018-02-08T16:12:03.183Z,101543.34
2018-02-08T16:14:30.708Z,101541.94
2018-02-08T16:16:58.460Z,101546.06
2018-02-08T16:19:25.968Z,101550.47
2018-02-08T16:21:53.497Z,101550.00
2018-02-08T16:24:21.044Z,101547.09
2018-02-08T16:26:48.597Z,101558.87
2018-02-08T16:29:16.172Z,101558.12
2018-02-08T16:31:43.754Z,101558.45
2018-02-08T16:34:11.372Z,101562.09
2018-02-08T16:36:39.039Z,101556.61
2018-02-08T16:39:06.615Z,101555.22
2018-02-08T16:41:34.176Z,101554.51
2018-02-08T16:44:01.722Z,101561.38
2018-02-08T16:46:29.238Z,101565.36
2018-02-08T16:48:56.786Z,101566.13
2018-02-08T16:51:24.329Z,101566.83
2018-02-08T16:53:51.867Z,101566.69
2018-02-08T16:56:19.402Z,101566.97
2018-02-08T16:58:46.931Z,101567.63
2018-02-08T17:01:14.473Z,101567.30
2018-02-08T17:03:42.030Z,101565.63
2018-02-08T17:06:09.537Z,101563.88
2018-02-08T17:08:37.053Z,101566.80
2018-02-08T17:11:04.680Z,101564.43
2018-02-08T17:13:32.245Z,101559.92
2018-02-08T17:15:59.778Z,101565.53
2018-02-08T17:18:27.441Z,101566.45
2018-02-08T17:20:54.957Z,101558.16
2018-02-08T17:23:22.465Z,101560.61
2018-02-08T17:25:50.006Z,101559.70
2018-02-08T17:28:17.540Z,101559.57
2018-02-08T17:30:45.098Z,101561.88
2018-02-08T17:33:12.629Z,101561.20
2018-02-08T17:35:40.231Z,101562.17
2018-02-08T17:38:07.791Z,101559.30
2018-02-08T17:40:35.327Z,101565.47
2018-02-08T17:43:02.843Z,101567.00
2018-02-08T17:45:31.803Z,101564.90
2018-02-08T17:47:59.332Z,101561.30
2018-02-08T17:50:28.221Z,101566.42
2018-02-08T17:52:55.832Z,101566.36
2018-02-08T17:55:23.373Z,101569.07
2018-02-08T17:57:50.941Z,101575.04
2018-02-08T18:00:18.662Z,101570.55
2018-02-08T18:02:46.203Z,101573.71
2018-02-08T18:05:13.740Z,101569.47
2018-02-08T18:07:41.341Z,101574.38
2018-02-08T18:10:08.899Z,101579.57
2018-02-08T18:12:36.425Z,101576.30
2018-02-08T18:15:03.942Z,101576.79
2018-02-08T18:17:31.521Z,101569.63
2018-02-08T18:19:59.043Z,101573.04
2018-02-08T18:22:26.556Z,101566.56
2018-02-08T18:24:54.124Z,101575.86
2018-02-08T18:27:21.644Z,101572.52
2018-02-08T18:29:49.239Z,101578.64
2018-02-08T18:32:16.798Z,101580.30
2018-02-08T18:34:44.309Z,101579.27
2018-02-08T18:37:11.858Z,101586.45
2018-02-08T18:39:39.369Z,101584.41
2018-02-08T18:42:06.905Z,101588.89
2018-02-08T18:44:34.633Z,101584.41
2018-02-08T18:47:02.174Z,101586.42
2018-02-08T18:49:29.685Z,101584.95
2018-02-08T18:51:57.334Z,101582.41
2018-02-08T18:54:24.847Z,101583.81
2018-02-08T18:56:52.360Z,101586.78
2018-02-08T18:59:19.906Z,101578.07
2018-02-08T19:01:47.556Z,101582.90
2018-02-08T19:04:15.139Z,101572.58
2018-02-08T19:06:42.677Z,101581.31
2018-02-08T19:09:10.238Z,101578.86
2018-02-08T19:11:37.779Z,101577.52
2018-02-08T19:14:05.372Z,101582.72
2018-02-08T19:16:32.882Z,101581.39
2018-02-08T19:19:00.392Z,101581.86
2018-02-08T19:21:27.936Z,101583.98
2018-02-08T19:23:55.449Z,101580.83
2018-02-08T19:26:22.983Z,101577.94
2018-02-08T19:28:50.575Z,101577.72
2018-02-08T19:31:18.163Z,101582.69
2018-02-08T19:33:45.714Z,101585.81
2018-02-08T19:36:13.273Z,101579.86
2018-02-08T19:38:40.813Z,101586.23
2018-02-08T19:41:08.329Z,101589.50
2018-02-08T19:43:35.967Z,101587.88
2018-02-08T19:46:03.491Z,101586.66
2018-02-08T19:48:31.022Z,101587.08
2018-02-08T19:50:58.569Z,101592.39
2018-02-08T19:53:26.085Z,101589.45
2018-02-08T19:55:53.626Z,101586.79
2018-02-08T19:58:21.174Z,101585.95
2018-02-08T20:00:48.794Z,101589.56
2018-02-08T20:03:16.342Z,101582.42
2018-02-08T20:05:43.887Z,101581.81
2018-02-08T20:08:11.456Z,101580.45
2018-02-08T20:10:39.249Z,101578.59
2018-02-08T20:13:06.777Z,101580.83
2018-02-08T20:15:34.736Z,101583.72
2018-02-08T20:18:02.280Z,101585.87
2018-02-08T20:20:30.021Z,101586.06
2018-02-08T20:22:57.534Z,101586.86
2018-02-08T20:25:31.028Z,101584.39
2018-02-08T20:27:58.584Z,101577.83
2018-02-08T20:30:26.123Z,101589.10
2018-02-08T20:32:53.676Z,101586.70
2018-02-08T20:35:21.235Z,101585.22
2018-02-08T20:37:48.761Z,101584.50
2018-02-08T20:40:22.321Z,101581.80
2018-02-08T20:42:55.519Z,101584.97
2018-02-08T20:45:23.073Z,101584.80
2018-02-08T20:47:50.663Z,101581.19
2018-02-08T20:50:18.409Z,101585.59
2018-02-08T20:52:45.972Z,101580.50
2018-02-08T20:55:13.505Z,101580.69
2018-02-08T20:57:41.047Z,101579.28
2018-02-08T21:00:08.584Z,101577.00
2018-02-08T21:02:36.120Z,101583.66
2018-02-08T21:05:03.795Z,101583.53
2018-02-08T21:07:31.332Z,101582.05
2018-02-08T21:09:58.881Z,101582.59
2018-02-08T21:12:26.464Z,101578.80
2018-02-08T21:14:54.006Z,101576.09
2018-02-08T21:17:21.669Z,101575.39
2018-02-08T21:19:49.237Z,101570.30
2018-02-08T21:22:16.773Z,101571.92
2018-02-08T21:24:44.453Z,101574.52
2018-02-08T21:27:12.034Z,101574.39
2018-02-08T21:29:39.564Z,101577.84
2018-02-08T21:32:07.198Z,101582.66
2018-02-08T21:34:34.713Z,101576.45
2018-02-08T21:37:02.281Z,101570.17
2018-02-08T21:39:29.946Z,101570.84
2018-02-08T21:41:57.658Z,101570.95
2018-02-08T21:44:25.183Z,101565.01
2018-02-08T21:46:52.725Z,101564.63
2018-02-08T21:49:20.273Z,101568.84
2018-02-08T21:51:47.811Z,101565.84
2018-02-08T21:54:15.473Z,101556.25
2018-02-08T21:56:43.000Z,101558.80
2018-02-08T21:59:10.546Z,101560.89
2018-02-08T22:01:38.108Z,101567.03
2018-02-08T22:04:05.657Z,101564.56
2018-02-08T22:06:33.190Z,101570.00
2018-02-08T22:09:00.753Z,101571.02
2018-02-08T22:11:28.304Z,101571.45
2018-02-08T22:13:55.829Z,101573.02
2018-02-08T22:16:23.506Z,101566.55
2018-02-08T22:18:51.079Z,101572.00
2018-02-08T22:21:18.641Z,101569.22
2018-02-08T22:23:46.162Z,101566.67
2018-02-08T22:26:13.709Z,101566.58
2018-02-08T22:28:41.249Z,101569.83
2018-02-08T22:31:08.850Z,101573.91
2018-02-08T22:33:36.392Z,101569.41
2018-02-08T22:36:03.953Z,101563.67
2018-02-08T22:38:31.477Z,101568.17
2018-02-08T22:40:59.032Z,101563.74
2018-02-08T22:43:26.593Z,101562.63
2018-02-08T22:45:54.128Z,101566.68
2018-02-08T22:48:21.675Z,101563.30
2018-02-08T22:50:49.236Z,101567.28
2018-02-08T22:53:16.790Z,101562.05
2018-02-08T22:55:44.382Z,101565.64
2018-02-08T22:58:11.937Z,101566.97
2018-02-08T23:00:39.473Z,101565.64
2018-02-08T23:03:07.076Z,101562.11
2018-02-08T23:05:34.614Z,101560.70
2018-02-08T23:08:02.145Z,101558.55
2018-02-08T23:10:29.815Z,101557.89
2018-02-08T23:12:57.352Z,101563.06
2018-02-08T23:15:24.934Z,101559.82
2018-02-08T23:17:52.613Z,101559.62
2018-02-08T23:20:20.129Z,101561.25
2018-02-08T23:22:47.713Z,101554.45
2018-02-08T23:25:15.264Z,101560.77
2018-02-08T23:27:42.793Z,101558.13
2018-02-08T23:30:10.337Z,101560.98
2018-02-08T23:32:37.894Z,101564.79
2018-02-08T23:35:05.442Z,101552.44
2018-02-08T23:37:33.014Z,101552.34
2018-02-08T23:40:00.665Z,101558.66
2018-02-08T23:42:28.206Z,101552.13
2018-02-08T23:44:55.725Z,101554.30
2018-02-08T23:47:23.313Z,101559.73
2018-02-08T23:49:50.880Z,101557.12
2018-02-08T23:52:18.401Z,101558.52
2018-02-08T23:54:45.989Z,101557.61
2018-02-08T23:57:13.544Z,101555.63
2018-02-08T23:59:41.218Z,101555.48
